createdAt,value
2023-05-02T00:03:53.015Z,100219.38
2023-05-02T00:08:56.357Z,100227.69
2023-05-02T00:13:59.279Z,100221.09
2023-05-02T00:19:02.217Z,100218.63
2023-05-02T00:24:05.953Z,100219.63
2023-05-02T00:29:08.962Z,100218.00
2023-05-02T00:34:11.905Z,100215.53
2023-05-02T00:39:15.381Z,100208.91
2023-05-02T00:44:18.348Z,100206.63
2023-05-02T00:49:21.513Z,100221.22
2023-05-02T00:54:24.551Z,100218.75
2023-05-02T00:59:27.468Z,100220.22
2023-05-02T01:04:58.001Z,100224.53
2023-05-02T01:10:15.085Z,100222.41
2023-05-02T01:15:22.545Z,100225.72
2023-05-02T01:20:29.395Z,100224.53
2023-05-02T01:25:37.978Z,100216.22
2023-05-02T01:30:45.004Z,100222.19
2023-05-02T01:35:52.661Z,100218.69
2023-05-02T01:40:59.183Z,100205.41
2023-05-02T01:46:05.220Z,100208.44
2023-05-02T01:51:09.220Z,100200.94
2023-05-02T01:56:12.784Z,100209.91
2023-05-02T02:01:17.888Z,100203.91
2023-05-02T02:06:22.325Z,100204.91
2023-05-02T02:11:40.761Z,100195.94
2023-05-02T02:16:44.323Z,100196.78
2023-05-02T02:21:49.376Z,100192.63
2023-05-02T02:26:52.529Z,100184.66
2023-05-02T02:31:55.540Z,100188.97
2023-05-02T02:37:18.398Z,100190.63
2023-05-02T02:42:44.185Z,100193.59
2023-05-02T02:48:07.458Z,100180.13
2023-05-02T02:53:19.710Z,100190.72
2023-05-02T02:58:48.029Z,100185.22
2023-05-02T03:03:53.611Z,100187.19
2023-05-02T03:08:56.938Z,100196.47
2023-05-02T03:13:59.956Z,100201.41
2023-05-02T03:19:04.378Z,100197.75
2023-05-02T03:24:07.377Z,100207.00
2023-05-02T03:29:10.895Z,100201.66
2023-05-02T03:34:13.835Z,100191.31
2023-05-02T03:39:17.734Z,100212.81
2023-05-02T03:44:20.712Z,100216.41
2023-05-02T03:49:23.493Z,100219.22
2023-05-02T03:54:26.524Z,100229.13
2023-05-02T03:59:29.605Z,100222.50
2023-05-02T04:04:33.109Z,100226.63
2023-05-02T04:09:36.171Z,100231.53
2023-05-02T04:14:39.235Z,100229.44
2023-05-02T04:19:42.633Z,100235.16
2023-05-02T04:24:45.697Z,100235.88
2023-05-02T04:29:50.258Z,100238.09
2023-05-02T04:34:53.265Z,100236.84
2023-05-02T04:39:56.330Z,100247.72
2023-05-02T04:45:00.484Z,100247.13
2023-05-02T04:50:03.632Z,100243.69
2023-05-02T04:55:07.387Z,100260.19
2023-05-02T05:00:11.330Z,100254.53
2023-05-02T05:05:14.553Z,100243.84
2023-05-02T05:10:17.640Z,100253.22
2023-05-02T05:15:22.712Z,100253.91
2023-05-02T05:20:25.706Z,100256.72
2023-05-02T05:25:28.848Z,100255.84
2023-05-02T05:30:32.236Z,100269.09
2023-05-02T05:35:35.308Z,100272.19
2023-05-02T05:40:38.314Z,100264.97
2023-05-02T05:45:41.228Z,100269.56
2023-05-02T05:50:44.174Z,100279.22
2023-05-02T05:55:47.352Z,100279.22
2023-05-02T06:00:50.758Z,100283.31
2023-05-02T06:05:53.850Z,100286.59
2023-05-02T06:10:57.000Z,100284.94
2023-05-02T06:16:03.374Z,100289.59
2023-05-02T06:21:06.911Z,100291.91
2023-05-02T06:26:10.612Z,100292.34
2023-05-02T06:31:13.613Z,100292.13
2023-05-02T06:36:16.564Z,100279.09
2023-05-02T06:41:20.866Z,100288.72
2023-05-02T06:46:24.436Z,100292.53
2023-05-02T06:51:27.766Z,100294.34
2023-05-02T06:56:31.263Z,100286.59
2023-05-02T07:01:34.295Z,100283.56
2023-05-02T07:06:37.409Z,100287.16
2023-05-02T07:11:40.492Z,100290.47
2023-05-02T07:16:43.517Z,100283.69
2023-05-02T07:21:46.557Z,100285.34
2023-05-02T07:26:49.676Z,100283.72
2023-05-02T07:31:52.754Z,100276.47
2023-05-02T07:36:56.178Z,100270.84
2023-05-02T07:41:59.373Z,100275.94
2023-05-02T07:47:02.773Z,100271.75
2023-05-02T07:52:05.861Z,100263.94
2023-05-02T07:57:09.083Z,100269.34
2023-05-02T08:02:13.851Z,100263.84
2023-05-02T08:07:17.349Z,100276.25
2023-05-02T08:12:20.388Z,100270.13
2023-05-02T08:17:23.453Z,100264.84
2023-05-02T08:22:26.409Z,100268.25
2023-05-02T08:27:29.425Z,100267.31
2023-05-02T08:32:33.140Z,100268.00
2023-05-02T08:37:36.582Z,100265.47
2023-05-02T08:42:44.814Z,100277.25
2023-05-02T08:47:50.022Z,100255.81
2023-05-02T08:52:54.188Z,100254.91
2023-05-02T08:57:59.146Z,100257.81
2023-05-02T09:03:33.870Z,100255.31
2023-05-02T09:08:37.666Z,100251.06
2023-05-02T09:13:43.641Z,100256.94
2023-05-02T09:18:49.119Z,100257.56
2023-05-02T09:23:57.638Z,100236.28
2023-05-02T09:29:05.067Z,100243.69
2023-05-02T09:34:19.283Z,100243.81
2023-05-02T09:39:29.343Z,100235.19
2023-05-02T09:44:39.318Z,100234.09
2023-05-02T09:49:47.134Z,100222.28
2023-05-02T09:54:52.281Z,100217.16
2023-05-02T09:59:59.133Z,100222.72
2023-05-02T10:05:04.742Z,100218.47
2023-05-02T10:10:12.622Z,100225.78
2023-05-02T10:15:19.010Z,100209.59
2023-05-02T10:20:37.944Z,100207.00
2023-05-02T10:25:41.230Z,100204.59
2023-05-02T10:30:45.955Z,100200.06
2023-05-02T10:35:49.131Z,100197.44
2023-05-02T10:41:01.271Z,100196.75
2023-05-02T10:46:24.481Z,100196.13
2023-05-02T10:51:32.204Z,100190.50
2023-05-02T10:56:35.404Z,100187.81
2023-05-02T11:01:39.691Z,100183.28
2023-05-02T11:07:05.720Z,100186.59
2023-05-02T11:12:08.738Z,100193.25
2023-05-02T11:17:11.740Z,100190.75
2023-05-02T11:22:20.779Z,100188.25
2023-05-02T11:27:30.070Z,100180.47
2023-05-02T11:32:49.914Z,100187.53
2023-05-02T11:37:57.018Z,100176.56
2023-05-02T11:43:01.494Z,100179.13
2023-05-02T11:48:08.487Z,100180.59
2023-05-02T11:53:17.602Z,100177.88
2023-05-02T11:58:29.619Z,100177.38
2023-05-02T12:03:34.178Z,100171.47
2023-05-02T12:08:38.048Z,100162.81
2023-05-02T12:13:50.001Z,100166.50
2023-05-02T12:18:53.575Z,100154.56
2023-05-02T12:23:57.285Z,100151.66
2023-05-02T12:29:02.090Z,100147.66
2023-05-02T12:34:05.056Z,100145.72
2023-05-02T12:39:08.030Z,100141.81
2023-05-02T12:44:11.097Z,100146.56
2023-05-02T12:49:14.156Z,100135.69
2023-05-02T12:54:21.451Z,100133.25
2023-05-02T12:59:30.432Z,100132.84
2023-05-02T13:04:42.202Z,100121.78
2023-05-02T13:09:45.194Z,100127.59
2023-05-02T13:14:48.243Z,100119.44
2023-05-02T13:20:00.850Z,100114.75
2023-05-02T13:25:06.638Z,100112.06
2023-05-02T13:30:10.888Z,100107.09
2023-05-02T13:35:15.823Z,100103.22
2023-05-02T13:40:18.913Z,100114.25
2023-05-02T13:45:22.352Z,100109.00
2023-05-02T13:50:25.357Z,100103.28
2023-05-02T13:55:28.289Z,100111.88
2023-05-02T14:00:31.414Z,100110.50
2023-05-02T14:05:34.421Z,100103.94
2023-05-02T14:10:37.989Z,100106.25
2023-05-02T14:15:40.905Z,100103.53
2023-05-02T14:20:44.450Z,100097.06
2023-05-02T14:25:47.220Z,100106.72
2023-05-02T14:30:51.284Z,100115.41
2023-05-02T14:35:54.404Z,100143.84
2023-05-02T14:40:57.390Z,100139.75
2023-05-02T14:46:00.537Z,100126.31
2023-05-02T14:51:05.692Z,100129.19
2023-05-02T14:56:14.854Z,100127.53
2023-05-02T15:01:23.472Z,100126.94
2023-05-02T15:06:33.246Z,100130.72
2023-05-02T15:11:36.839Z,100125.56
2023-05-02T15:16:39.956Z,100121.94
2023-05-02T15:21:43.168Z,100118.31
2023-05-02T15:26:46.730Z,100112.25
2023-05-02T15:31:49.663Z,100111.56
2023-05-02T15:36:52.808Z,100114.00
2023-05-02T15:41:55.868Z,100110.72
2023-05-02T15:47:00.299Z,100118.25
2023-05-02T15:52:03.560Z,100124.47
2023-05-02T15:57:06.596Z,100118.97
2023-05-02T16:02:09.680Z,100110.13
2023-05-02T16:07:12.641Z,100111.09
2023-05-02T16:12:15.708Z,100108.19
2023-05-02T16:17:18.666Z,100113.34
2023-05-02T16:22:22.306Z,100100.91
2023-05-02T16:27:25.508Z,100105.94
2023-05-02T16:32:28.347Z,100107.00
2023-05-02T16:37:33.731Z,100104.16
2023-05-02T16:42:37.328Z,100111.91
2023-05-02T16:47:40.365Z,100119.53
2023-05-02T16:52:44.544Z,100113.41
2023-05-02T16:57:48.010Z,100112.91
2023-05-02T17:02:55.090Z,100122.41
2023-05-02T17:07:58.580Z,100119.66
2023-05-02T17:13:01.521Z,100122.69
2023-05-02T17:18:05.258Z,100124.13
2023-05-02T17:23:09.168Z,100134.13
2023-05-02T17:28:12.271Z,100146.25
2023-05-02T17:33:16.208Z,100157.47
2023-05-02T17:38:28.895Z,100169.84
2023-05-02T17:43:32.187Z,100183.19
2023-05-02T17:48:35.399Z,100197.75
2023-05-02T17:53:39.242Z,100193.66
2023-05-02T17:58:42.188Z,100186.78
2023-05-02T18:03:45.456Z,100186.59
2023-05-02T18:08:48.683Z,100193.97
2023-05-02T18:13:52.058Z,100182.28
2023-05-02T18:18:55.329Z,100186.66
2023-05-02T18:23:58.184Z,100191.44
2023-05-02T18:29:01.167Z,100206.75
2023-05-02T18:34:04.752Z,100206.94
2023-05-02T18:39:10.453Z,100215.38
2023-05-02T18:44:13.462Z,100226.34
2023-05-02T18:49:17.736Z,100243.03
2023-05-02T18:54:22.888Z,100229.44
2023-05-02T18:59:26.716Z,100238.53
2023-05-02T19:04:33.088Z,100249.63
2023-05-02T19:09:37.272Z,100243.66
2023-05-02T19:14:40.523Z,100243.88
2023-05-02T19:19:46.704Z,100257.22
2023-05-02T19:24:51.005Z,100263.59
2023-05-02T19:29:54.730Z,100282.34
2023-05-02T19:34:58.063Z,100289.47
2023-05-02T19:40:01.169Z,100286.59
2023-05-02T19:45:04.744Z,100323.28
2023-05-02T19:50:09.451Z,100348.84
2023-05-02T19:55:12.618Z,100331.91
2023-05-02T20:00:16.284Z,100325.19
2023-05-02T20:05:19.712Z,100332.28
2023-05-02T20:10:22.877Z,100330.28
2023-05-02T20:15:26.003Z,100325.47
2023-05-02T20:20:30.230Z,100333.06
2023-05-02T20:25:33.324Z,100344.41
2023-05-02T20:30:36.348Z,100358.66
2023-05-02T20:35:39.329Z,100361.78
2023-05-02T20:40:42.835Z,100352.34
2023-05-02T20:45:47.123Z,100353.56
2023-05-02T20:50:54.670Z,100362.34
2023-05-02T20:55:57.805Z,100346.56
2023-05-02T21:01:01.420Z,100371.38
2023-05-02T21:06:04.536Z,100356.50
2023-05-02T21:11:16.862Z,100373.34
2023-05-02T21:16:22.113Z,100352.09
2023-05-02T21:21:25.307Z,100353.13
2023-05-02T21:26:28.368Z,100357.75
2023-05-02T21:31:33.215Z,100357.88
2023-05-02T21:36:36.399Z,100368.00
2023-05-02T21:41:39.478Z,100371.84
2023-05-02T21:46:42.712Z,100379.22
2023-05-02T21:51:45.851Z,100378.13
2023-05-02T21:56:48.871Z,100380.16
2023-05-02T22:01:52.316Z,100380.69
2023-05-02T22:06:55.855Z,100379.22
2023-05-02T22:11:58.980Z,100383.63
2023-05-02T22:17:04.625Z,100401.84
2023-05-02T22:22:08.134Z,100397.44
2023-05-02T22:27:11.256Z,100404.13
2023-05-02T22:32:14.296Z,100416.84
2023-05-02T22:37:17.195Z,100423.63
2023-05-02T22:42:20.899Z,100434.81
2023-05-02T22:47:24.099Z,100439.75
2023-05-02T22:52:27.495Z,100449.09
2023-05-02T22:57:31.393Z,100445.03
2023-05-02T23:02:35.821Z,100444.19
2023-05-02T23:07:39.574Z,100439.75
2023-05-02T23:12:42.640Z,100436.50
2023-05-02T23:17:45.687Z,100432.91
2023-05-02T23:22:48.769Z,100439.59
2023-05-02T23:27:51.990Z,100444.63
2023-05-02T23:32:55.551Z,100434.13
2023-05-02T23:38:07.089Z,100442.59
2023-05-02T23:43:10.994Z,100425.28
2023-05-02T23:48:13.986Z,100443.97
2023-05-02T23:53:17.063Z,100435.31
2023-05-02T23:58:20.140Z,100428.97
